Time;durP1;ratioP1;P1;durP2;ratioP2;P2;SDS_P1;SDS_P2;PMS_P1;PMS_P2;Temp;Humidity;BMP_temperature;BMP_pressure;BME280_temperature;BME280_humidity;BME280_pressure;Samples;Min_cycle;Max_cycle;Signal;HPM_P1;HPM_P2
2022/04/11 00:02:00;;;;;;;;;6.75;6.75;;;;;8.06;100.00;101178.81;5989641;23;44926;-85
2022/04/11 00:05:00;;;;;;;;;6.25;6.00;;;;;8.05;100.00;101185.03;6082177;23;44789;-86
2022/04/11 00:08:05;;;;;;;;;;;;;;;;;;;;;
2022/04/11 00:10:37;;;;;;;;;5.00;5.00;;;;;7.95;100.00;101181.97;6175843;23;73302;-84
2022/04/11 00:13:19;;;;;;;;;6.00;6.00;;;;;7.93;100.00;101181.22;6165017;23;45340;-84
2022/04/11 00:15:47;;;;;;;;;4.25;4.25;;;;;7.88;100.00;101175.25;6188574;23;45590;-84
2022/04/11 00:18:15;;;;;;;;;6.75;6.75;;;;;7.87;100.00;101182.34;6163530;23;46724;-86
2022/04/11 00:20:46;;;;;;;;;7.75;7.25;;;;;7.83;100.00;101177.28;6190998;23;45316;-85
2022/04/11 00:23:18;;;;;;;;;8.50;6.25;;;;;7.83;100.00;101174.63;6166169;23;44793;-87
2022/04/11 00:25:44;;;;;;;;;6.75;6.75;;;;;7.75;100.00;101160.94;6160764;23;45429;-84
2022/04/11 00:28:11;;;;;;;;;8.00;6.25;;;;;7.75;100.00;101171.53;6185598;22;45378;-86
2022/04/11 00:30:44;;;;;;;;;5.00;5.00;;;;;7.69;100.00;101159.47;6195299;22;45334;-83
2022/04/11 00:33:10;;;;;;;;;5.00;5.00;;;;;7.67;100.00;101162.16;6223059;22;44749;-84
2022/04/11 00:35:35;;;;;;;;;7.00;6.00;;;;;7.66;100.00;101149.88;6201896;22;45004;-84
2022/04/11 00:38:08;;;;;;;;;6.00;5.00;;;;;7.64;100.00;101145.56;6210678;22;46674;-85
2022/04/11 00:40:34;;;;;;;;;7.00;6.00;;;;;7.63;100.00;101138.56;6326561;22;44875;-85
2022/04/11 00:43:04;;;;;;;;;5.75;5.75;;;;;7.60;100.00;101128.16;6328524;22;44800;-86
2022/04/11 00:45:30;;;;;;;;;5.50;4.25;;;;;7.56;100.00;101119.50;6307027;22;44706;-84
2022/04/11 00:47:57;;;;;;;;;6.50;6.00;;;;;7.51;100.00;101115.38;6296409;22;45014;-84
2022/04/11 00:50:23;;;;;;;;;6.00;6.00;;;;;7.48;100.00;101108.44;6290722;22;44600;-86
2022/04/11 00:52:54;;;;;;;;;7.75;6.75;;;;;7.50;100.00;101111.03;6290335;22;44791;-85
2022/04/11 00:55:23;;;;;;;;;7.00;6.00;;;;;7.44;100.00;101107.72;6288237;22;44853;-85
2022/04/11 00:57:48;;;;;;;;;6.00;6.00;;;;;7.46;100.00;101107.69;6288537;22;46743;-84
2022/04/11 01:00:14;;;;;;;;;6.00;6.00;;;;;7.42;100.00;101106.09;6284788;22;44713;-85
2022/04/11 01:02:40;;;;;;;;;6.00;6.00;;;;;7.39;100.00;101104.44;6310838;22;44802;-86
2022/04/11 01:05:13;;;;;;;;;7.25;7.00;;;;;7.35;100.00;101096.75;6311183;22;45540;-86
2022/04/11 01:07:40;;;;;;;;;9.00;7.00;;;;;7.31;100.00;101090.78;6314219;22;45371;-86
2022/04/11 01:10:09;;;;;;;;;6.50;6.50;;;;;7.28;100.00;101074.19;6291295;22;45342;-85
2022/04/11 01:12:35;;;;;;;;;6.75;6.75;;;;;7.27;100.00;101083.91;6326609;22;44743;-85
2022/04/11 01:15:00;;;;;;;;;4.50;4.50;;;;;7.24;100.00;101081.41;6291496;22;45117;-84
2022/04/11 01:17:37;;;;;;;;;5.75;5.75;;;;;7.20;100.00;101075.44;6312726;22;45092;-85
2022/04/11 01:20:16;;;;;;;;;6.00;6.00;;;;;7.17;100.00;101069.44;6284209;22;44720;-83
2022/04/11 01:22:46;;;;;;;;;7.00;5.50;;;;;7.13;100.00;101070.50;6292792;22;45374;-86
2022/04/11 01:25:38;;;;;;;;;;;;;;;;;;;;;
2022/04/11 01:28:07;;;;;;;;;6.00;4.50;;;;;7.05;100.00;101062.06;6310482;22;74541;-85
2022/04/11 01:30:46;;;;;;;;;6.25;5.25;;;;;6.98;100.00;101053.59;6211673;22;44746;-85
2022/04/11 01:33:44;;;;;;;;;6.00;6.00;;;;;6.98;100.00;101055.38;6212768;22;45430;-85
2022/04/11 01:36:57;;;;;;;;;4.00;3.75;;;;;6.95;100.00;101057.22;6190583;22;45517;-85
2022/04/11 01:39:28;;;;;;;;;9.00;7.00;;;;;6.93;100.00;101048.50;6190942;22;46878;-84
2022/04/11 01:41:59;;;;;;;;;5.00;5.00;;;;;6.92;100.00;101041.53;6219544;22;44772;-85
2022/04/11 01:44:32;;;;;;;;;2.00;1.00;;;;;6.89;100.00;101039.03;6199298;22;44692;-85
2022/04/11 01:47:01;;;;;;;;;5.50;5.25;;;;;6.89;100.00;101033.75;6194515;22;44792;-85
2022/04/11 01:49:45;;;;;;;;;6.25;5.75;;;;;6.89;100.00;101033.75;6213241;22;45386;-86
2022/04/11 01:52:26;;;;;;;;;4.75;4.50;;;;;6.90;100.00;101037.22;6187177;22;44719;-84
2022/04/11 01:54:53;;;;;;;;;4.75;4.00;;;;;6.89;100.00;101028.47;6211698;22;44754;-85
2022/04/11 01:57:18;;;;;;;;;6.50;5.00;;;;;6.89;100.00;101023.19;6212287;22;45216;-85
2022/04/11 01:59:46;;;;;;;;;5.00;5.00;;;;;6.89;100.00;101028.47;6162608;22;46626;-85
2022/04/11 02:05:40;;;;;;;;;6.25;6.25;;;;;6.88;100.00;101023.25;6272337;22;44828;-85
2022/04/11 02:12:03;;;;;;;;;4.00;4.00;;;;;6.83;100.00;101015.53;6160550;23;45000;-84
2022/04/11 02:18:27;;;;;;;;;5.00;4.00;;;;;6.79;100.00;101013.97;6156319;23;44724;-84
2022/04/11 02:21:55;;;;;;;;;;;;;;;;;;;;;
2022/04/11 02:39:35;;;;;;;;;3.00;3.00;;;;;6.70;100.00;100986.22;5936119;23;44967;-84
2022/04/11 02:46:32;;;;;;;;;6.50;4.75;;;;;6.71;100.00;100981.78;5983634;23;44922;-83
2022/04/11 02:49:24;;;;;;;;;5.00;4.00;;;;;6.72;100.00;100985.28;5984937;23;44857;-84
2022/04/11 02:52:20;;;;;;;;;3.00;3.00;;;;;6.69;100.00;100978.38;5957896;23;45039;-85
2022/04/11 02:55:37;;;;;;;;;3.00;3.00;;;;;6.67;100.00;100975.81;5981642;23;44752;-84
2022/04/11 02:58:50;;;;;;;;;9.25;4.00;;;;;6.69;100.00;100967.81;5946985;23;44842;-84
2022/04/11 03:02:04;;;;;;;;;;;;;;;;;;;;;
2022/04/11 03:05:30;;;;;;;;;3.00;3.00;;;;;6.65;100.00;100945.13;5928601;23;74612;-86
2022/04/11 03:08:13;;;;;;;;;3.00;3.00;;;;;6.68;100.00;100945.00;5966146;23;45167;-84
2022/04/11 03:11:24;;;;;;;;;;;;;;;;;;;;;
2022/04/11 03:28:41;;;;;;;;;5.25;4.00;;;;;6.61;100.00;100935.63;5839292;24;44630;-84
2022/04/11 04:11:08;;;;;;;;;3.25;3.25;;;;;6.36;100.00;100891.94;6157530;23;45140;-85
2022/04/11 04:18:01;;;;;;;;;8.75;4.50;;;;;6.35;100.00;100887.59;6070650;23;44866;-83
2022/04/11 04:25:07;;;;;;;;;;;;;;;;;;;;;
2022/04/11 04:28:17;;;;;;;;;5.75;4.75;;;;;6.28;100.00;100880.88;5966351;23;71645;-84
2022/04/11 04:31:33;;;;;;;;;7.25;4.00;;;;;6.25;100.00;100870.47;5960501;23;45932;-83
2022/04/11 04:34:29;;;;;;;;;;;;;;;;;;;;;
2022/04/11 04:44:36;;;;;;;;;4.50;4.50;;;;;6.25;100.00;100862.56;5879786;24;44785;-84
2022/04/11 04:47:02;;;;;;;;;6.00;6.00;;;;;6.24;100.00;100867.91;5903716;24;45339;-83
2022/04/11 04:50:03;;;;;;;;;10.00;5.00;;;;;6.20;100.00;100863.72;5904417;24;44952;-85
2022/04/11 04:53:22;;;;;;;;;6.00;4.25;;;;;6.19;100.00;100868.13;5938996;23;45387;-85
2022/04/11 05:03:36;;;;;;;;;;;;;;;;;;;;;
2022/04/11 05:06:13;;;;;;;;;5.75;5.75;;;;;6.13;100.00;100884.22;5740201;24;72170;-85
2022/04/11 05:09:17;;;;;;;;;5.25;5.25;;;;;6.12;100.00;100893.91;5718817;24;44728;-86
2022/04/11 05:12:10;;;;;;;;;7.75;5.25;;;;;6.12;100.00;100898.34;5734837;24;44886;-84
2022/04/11 05:14:52;;;;;;;;;6.00;5.00;;;;;6.14;100.00;100892.09;5711870;24;45170;-84
2022/04/11 05:17:19;;;;;;;;;4.25;4.25;;;;;6.15;100.00;100893.78;5742508;24;45504;-85
2022/04/11 05:19:45;;;;;;;;;3.75;3.75;;;;;6.15;100.00;100880.59;5756232;24;44721;-84
2022/04/11 05:22:10;;;;;;;;;6.50;5.25;;;;;6.22;100.00;100875.88;5772997;24;44764;-85
2022/04/11 05:24:36;;;;;;;;;5.00;5.00;;;;;6.28;100.00;100878.22;5782963;24;44975;-86
2022/04/11 05:27:02;;;;;;;;;5.75;5.75;;;;;6.36;100.00;100878.72;5772461;24;44752;-86
2022/04/11 05:29:27;;;;;;;;;5.00;5.00;;;;;6.42;100.00;100881.06;5756754;24;44766;-86
2022/04/11 05:31:52;;;;;;;;;4.00;4.00;;;;;6.50;100.00;100871.97;5897104;23;44789;-85
2022/04/11 05:34:18;;;;;;;;;5.67;5.67;;;;;6.57;100.00;100876.84;5930395;23;46357;-85
2022/04/11 05:36:44;;;;;;;;;8.33;5.00;;;;;6.64;100.00;100869.50;6001539;23;44634;-86
2022/04/11 05:39:09;;;;;;;;;7.25;5.00;;;;;6.71;100.00;100865.63;6106553;23;44686;-86
2022/04/11 05:41:35;;;;;;;;;4.00;4.00;;;;;6.75;100.00;100863.69;6123785;22;45358;-86
2022/04/11 05:44:00;;;;;;;;;5.75;4.00;;;;;6.80;100.00;100861.69;6247355;22;45180;-86
2022/04/11 05:46:25;;;;;;;;;5.00;5.00;;;;;6.87;100.00;100863.09;6220572;22;45272;-86
2022/04/11 05:48:51;;;;;;;;;5.00;5.00;;;;;6.93;100.00;100862.78;6220877;22;45188;-86
2022/04/11 05:51:16;;;;;;;;;5.25;4.00;;;;;7.00;100.00;100866.81;6248246;22;45545;-87
2022/04/11 05:53:45;;;;;;;;;5.75;5.75;;;;;7.07;100.00;100876.16;6218208;22;46547;-86
2022/04/11 05:56:10;;;;;;;;;6.75;6.00;;;;;7.15;100.00;100881.91;6218493;22;45402;-86
2022/04/11 05:58:57;;;;;;;;;3.75;3.75;;;;;7.19;100.00;100877.31;6220370;22;44808;-86
2022/04/11 06:01:25;;;;;;;;;4.75;4.75;;;;;7.26;100.00;100881.38;6253636;22;44817;-87
2022/04/11 06:04:03;;;;;;;;;7.00;5.00;;;;;7.34;100.00;100880.97;6167352;23;46563;-88
2022/04/11 06:07:06;;;;;;;;;6.00;5.75;;;;;7.39;100.00;100868.38;6159321;23;44894;-85
2022/04/11 06:13:30;;;;;;;;;6.25;6.00;;;;;7.68;100.00;100874.78;6075244;23;45271;-86
2022/04/11 06:16:42;;;;;;;;;8.00;6.25;;;;;7.81;100.00;100873.22;6074569;23;45119;-86
2022/04/11 06:26:12;;;;;;;;;6.00;6.00;;;;;8.23;100.00;100869.19;5988943;23;44758;-86
2022/04/11 06:28:41;;;;;;;;;7.00;7.00;;;;;8.35;100.00;100876.44;5988053;23;45436;-87
2022/04/11 06:41:34;;;;;;;;;5.25;4.50;;;;;8.84;100.00;100860.44;5936673;24;44938;-87
2022/04/11 06:44:21;;;;;;;;;0.00;0.00;;;;;8.96;100.00;100854.44;5937457;24;44737;-87
2022/04/11 06:50:23;;;;;;;;;7.75;6.75;;;;;9.14;100.00;100833.13;5956306;23;45394;-86
2022/04/11 06:53:38;;;;;;;;;6.50;6.25;;;;;9.36;100.00;100846.78;5935350;23;45631;-87
2022/04/11 06:57:28;;;;;;;;;;;;;;;;;;;;;
2022/04/11 06:59:56;;;;;;;;;6.50;5.75;;;;;9.75;100.00;100843.50;5813160;24;69678;-86
2022/04/11 07:02:41;;;;;;;;;8.25;7.75;;;;;9.80;100.00;100829.94;5824673;24;45514;-87
2022/04/11 07:05:08;;;;;;;;;5.75;5.25;;;;;9.87;100.00;100833.09;5853099;24;45375;-85
2022/04/11 07:07:44;;;;;;;;;6.25;6.25;;;;;9.89;100.00;100824.06;5891439;24;45395;-86
2022/04/11 07:14:30;;;;;;;;;;;;;;;;;;;;;
2022/04/11 07:17:29;;;;;;;;;9.00;6.50;;;;;10.12;100.00;100812.00;5879448;24;74586;-87
2022/04/11 07:20:03;;;;;;;;;6.50;6.50;;;;;10.16;100.00;100802.91;5883994;24;45209;-85
2022/04/11 07:22:35;;;;;;;;;6.75;6.25;;;;;10.17;100.00;100811.72;5858317;24;44783;-85
2022/04/11 07:25:01;;;;;;;;;6.00;6.00;;;;;10.21;100.00;100803.47;5876280;24;45766;-86
2022/04/11 07:27:58;;;;;;;;;7.50;5.50;;;;;10.32;100.00;100800.13;5869062;24;46495;-85
2022/04/11 07:30:33;;;;;;;;;6.00;5.25;;;;;10.39;100.00;100793.44;5893078;24;44692;-88
2022/04/11 07:32:58;;;;;;;;;7.00;4.00;;;;;10.48;100.00;100797.31;5844678;24;45263;-85
2022/04/11 07:35:24;;;;;;;;;5.00;5.00;;;;;10.56;100.00;100787.06;5981826;23;45334;-88
2022/04/11 07:37:49;;;;;;;;;6.75;6.25;;;;;10.62;100.00;100797.25;6097381;23;45616;-86
2022/04/11 07:40:15;;;;;;;;;5.75;5.00;;;;;10.66;100.00;100798.78;6072744;23;45471;-86
2022/04/11 07:42:40;;;;;;;;;8.00;5.75;;;;;10.76;100.00;100791.88;6071599;23;45261;-86
2022/04/11 07:45:07;;;;;;;;;7.25;7.25;;;;;10.86;100.00;100786.81;6097414;23;44802;-86
2022/04/11 07:47:32;;;;;;;;;6.00;6.00;;;;;10.91;100.00;100790.00;6096656;23;45037;-86
2022/04/11 07:49:57;;;;;;;;;7.25;7.25;;;;;11.02;100.00;100792.81;6164787;23;44663;-86
2022/04/11 07:52:25;;;;;;;;;4.25;4.25;;;;;11.15;100.00;100792.81;6159995;23;44746;-87
2022/04/11 07:54:51;;;;;;;;;5.00;4.00;;;;;11.22;100.00;100798.56;6191561;23;44838;-88
2022/04/11 07:57:16;;;;;;;;;6.25;5.25;;;;;11.35;100.00;100790.59;6192694;23;46734;-87
2022/04/11 07:59:42;;;;;;;;;7.00;5.25;;;;;11.44;100.00;100785.47;6190575;22;45401;-86
2022/04/11 08:02:08;;;;;;;;;7.00;6.50;;;;;11.50;100.00;100781.53;6187648;23;45235;-87
2022/04/11 08:04:33;;;;;;;;;6.50;5.25;;;;;11.54;100.00;100780.34;6187656;22;44821;-88
2022/04/11 08:07:02;;;;;;;;;7.00;6.00;;;;;11.65;100.00;100776.94;6192648;22;45246;-87
2022/04/11 08:09:27;;;;;;;;;6.80;6.00;;;;;11.79;100.00;100784.78;6218166;22;45255;-87
2022/04/11 08:11:53;;;;;;;;;6.75;6.75;;;;;11.93;100.00;100775.84;6220900;22;45221;-86
2022/04/11 08:14:18;;;;;;;;;5.00;5.00;;;;;11.97;99.97;100772.88;6224238;22;45032;-88
2022/04/11 08:16:44;;;;;;;;;6.25;5.50;;;;;12.12;100.00;100762.06;6249673;22;46957;-87
2022/04/11 08:19:09;;;;;;;;;6.75;4.25;;;;;12.22;99.65;100773.75;6226851;22;44777;-86
2022/04/11 08:21:35;;;;;;;;;2.25;1.75;;;;;12.26;99.10;100776.06;6226189;22;45051;-86
2022/04/11 08:24:00;;;;;;;;;4.50;4.50;;;;;12.32;99.45;100762.28;6228698;22;44909;-85
2022/04/11 08:26:26;;;;;;;;;8.00;7.00;;;;;12.46;100.00;100774.59;6229829;22;46894;-87
2022/04/11 08:28:51;;;;;;;;;5.75;5.00;;;;;12.53;98.75;100770.53;6255322;22;44652;-86
2022/04/11 08:31:18;;;;;;;;;8.75;6.00;;;;;12.64;98.78;100763.53;6256599;22;45157;-86
2022/04/11 08:33:45;;;;;;;;;7.25;4.50;;;;;12.74;98.02;100752.06;6255864;22;44890;-85
2022/04/11 08:36:11;;;;;;;;;11.25;6.25;;;;;12.85;95.94;100761.91;6226989;22;46740;-86
2022/04/11 08:38:36;;;;;;;;;5.00;4.50;;;;;12.94;97.70;100763.03;6254081;22;45018;-88
2022/04/11 08:41:03;;;;;;;;;3.50;2.50;;;;;13.04;95.62;100748.84;6256573;22;44756;-85
2022/04/11 08:43:30;;;;;;;;;4.25;3.00;;;;;13.22;95.04;100756.44;6227830;22;44717;-87
2022/04/11 08:46:06;;;;;;;;;4.20;4.20;;;;;13.27;93.98;100756.94;6231182;22;45148;-84
2022/04/11 08:48:34;;;;;;;;;4.40;4.40;;;;;13.38;94.37;100752.44;6230537;22;44758;-86
2022/04/11 08:51:00;;;;;;;;;4.20;4.00;;;;;13.53;94.24;100750.38;6227250;22;44788;-86
2022/04/11 08:53:25;;;;;;;;;3.00;3.00;;;;;13.63;93.75;100740.72;6201256;22;44974;-86
2022/04/11 08:55:51;;;;;;;;;5.00;3.75;;;;;13.78;93.63;100743.09;6230006;22;45685;-86
2022/04/11 08:58:18;;;;;;;;;4.75;4.25;;;;;13.89;91.52;100727.06;6224345;22;44753;-88
2022/04/11 09:00:43;;;;;;;;;4.60;4.20;;;;;13.94;92.44;100722.22;6223123;22;44692;-87
2022/04/11 09:03:09;;;;;;;;;3.00;3.00;;;;;14.08;92.58;100731.78;6222903;22;45346;-88
2022/04/11 09:05:36;;;;;;;;;6.00;4.00;;;;;14.14;90.85;100729.44;6218864;22;46518;-87
2022/04/11 09:08:02;;;;;;;;;5.60;4.20;;;;;14.26;90.23;100726.72;6245806;22;44806;-87
2022/04/11 09:10:32;;;;;;;;;4.00;4.00;;;;;14.39;90.08;100719.38;6221372;22;44716;-88
2022/04/11 09:13:00;;;;;;;;;4.20;2.80;;;;;14.55;90.46;100711.84;6221501;22;44887;-87
2022/04/11 09:15:27;;;;;;;;;3.00;3.00;;;;;14.65;89.56;100717.25;6219360;22;46681;-87
2022/04/11 09:17:55;;;;;;;;;4.00;3.60;;;;;14.65;87.48;100714.59;6219282;22;44662;-86
2022/04/11 09:20:25;;;;;;;;;3.00;3.00;;;;;14.69;87.17;100710.66;6227445;22;44725;-86
2022/04/11 09:22:55;;;;;;;;;7.00;4.00;;;;;14.77;87.55;100715.34;6226411;22;44821;-86
2022/04/11 09:25:23;;;;;;;;;3.80;3.80;;;;;14.82;87.89;100721.16;6258744;22;45124;-85
2022/04/11 09:28:09;;;;;;;;;3.80;3.80;;;;;14.89;88.37;100717.84;6256848;22;44743;-86
2022/04/11 09:30:35;;;;;;;;;3.80;2.20;;;;;15.03;86.81;100716.63;6231399;22;44783;-87
2022/04/11 09:33:06;;;;;;;;;4.40;3.20;;;;;15.16;87.11;100695.88;6255368;22;44865;-87
2022/04/11 09:35:37;;;;;;;;;3.00;3.00;;;;;15.12;85.47;100689.09;6229804;22;45123;-87
2022/04/11 09:38:08;;;;;;;;;2.80;2.80;;;;;15.17;86.78;100686.88;6228734;22;44599;-86
2022/04/11 09:40:37;;;;;;;;;4.00;4.00;;;;;15.26;85.01;100681.69;6233300;22;44730;-86
2022/04/11 09:43:02;;;;;;;;;5.40;4.20;;;;;15.29;85.29;100689.47;6231833;22;44853;-86
2022/04/11 09:45:56;;;;;;;;;3.60;3.60;;;;;15.40;86.39;100690.22;6231562;22;45148;-86
2022/04/11 09:48:27;;;;;;;;;6.00;4.00;;;;;15.54;85.27;100685.47;6226092;22;44809;-86
2022/04/11 09:51:20;;;;;;;;;2.60;2.40;;;;;15.70;86.01;100690.34;6228402;22;44691;-87
2022/04/11 09:53:46;;;;;;;;;3.00;3.00;;;;;15.89;84.85;100680.50;6226516;22;44807;-86
2022/04/11 09:56:11;;;;;;;;;2.60;2.40;;;;;16.03;84.40;100681.09;6219955;22;45048;-87
2022/04/11 09:58:39;;;;;;;;;4.00;3.00;;;;;16.23;85.88;100673.91;6222033;22;44665;-87
2022/04/11 10:01:05;;;;;;;;;3.00;3.00;;;;;16.35;82.91;100675.50;6219759;22;44844;-85
2022/04/11 10:03:31;;;;;;;;;3.40;3.40;;;;;16.40;83.39;100679.44;6216445;22;45250;-85
2022/04/11 10:05:58;;;;;;;;;3.40;3.40;;;;;16.46;82.59;100678.00;6216914;22;45304;-89
2022/04/11 10:08:25;;;;;;;;;4.80;2.40;;;;;16.53;80.58;100678.28;6245244;22;45310;-86
2022/04/11 10:10:53;;;;;;;;;2.20;2.20;;;;;16.60;81.23;100669.53;6249264;22;45136;-86
2022/04/11 10:13:19;;;;;;;;;3.00;3.00;;;;;16.58;76.72;100667.97;6249790;22;44995;-87
2022/04/11 10:15:48;;;;;;;;;2.50;2.50;;;;;16.59;77.65;100661.63;6253944;22;45166;-87
2022/04/11 10:18:16;;;;;;;;;3.20;3.20;;;;;16.63;80.12;100671.94;6225516;22;45245;-87
2022/04/11 10:20:49;;;;;;;;;2.00;2.00;;;;;16.82;79.13;100672.91;6222731;22;45208;-86
2022/04/11 10:23:35;;;;;;;;;4.00;3.00;;;;;16.89;79.00;100676.72;6255128;22;44539;-86
2022/04/11 10:26:13;;;;;;;;;4.40;4.40;;;;;17.01;78.27;100667.47;6230454;22;46638;-86
2022/04/11 10:28:45;;;;;;;;;5.00;2.00;;;;;17.08;77.53;100673.97;6229185;22;45516;-88
2022/04/11 10:31:13;;;;;;;;;3.60;3.60;;;;;17.09;77.43;100670.28;6253571;22;44782;-87
2022/04/11 10:33:43;;;;;;;;;3.00;3.00;;;;;17.13;77.10;100669.00;6227110;22;45222;-87
2022/04/11 10:36:35;;;;;;;;;4.00;3.00;;;;;17.26;78.39;100660.63;6255548;22;45105;-87
2022/04/11 10:39:12;;;;;;;;;3.80;3.80;;;;;17.31;76.87;100655.66;6227687;22;44713;-88
2022/04/11 10:41:56;;;;;;;;;4.00;3.00;;;;;17.38;75.96;100648.69;6256234;22;45280;-86
2022/04/11 10:44:37;;;;;;;;;2.80;2.80;;;;;17.35;76.06;100650.81;6260131;22;45636;-85
2022/04/11 10:47:11;;;;;;;;;3.00;3.00;;;;;17.42;76.92;100643.88;6226128;22;45343;-84
2022/04/11 10:49:49;;;;;;;;;4.80;3.00;;;;;17.41;75.85;100637.66;6248717;22;44749;-87
2022/04/11 10:52:35;;;;;;;;;2.20;1.00;;;;;17.33;75.97;100634.03;6221195;22;44743;-86
2022/04/11 10:55:17;;;;;;;;;3.20;2.20;;;;;17.34;78.36;100630.34;6220187;22;44795;-86
2022/04/11 10:57:55;;;;;;;;;2.40;2.40;;;;;17.37;77.15;100641.63;6219789;22;46683;-87
2022/04/11 11:00:31;;;;;;;;;3.00;3.00;;;;;17.39;76.85;100628.91;6249576;22;44786;-87
2022/04/11 11:02:57;;;;;;;;;4.00;4.00;;;;;17.41;76.22;100620.72;6250934;22;44663;-87
2022/04/11 11:05:27;;;;;;;;;4.40;3.00;;;;;17.39;76.78;100625.38;6224030;22;44889;-88
2022/04/11 11:08:17;;;;;;;;;4.00;4.00;;;;;17.39;77.77;100615.47;6245008;22;45297;-87
2022/04/11 11:11:01;;;;;;;;;3.40;3.40;;;;;17.39;76.79;100604.72;6245680;22;45232;-88
2022/04/11 11:13:39;;;;;;;;;4.00;3.00;;;;;17.38;77.77;100592.28;6246892;22;45361;-86
2022/04/11 11:16:08;;;;;;;;;5.00;3.00;;;;;17.43;76.87;100602.59;6245511;22;44770;-88
2022/04/11 11:18:46;;;;;;;;;2.20;2.20;;;;;17.48;77.92;100602.97;6247472;22;45045;-88
2022/04/11 11:21:16;;;;;;;;;3.40;2.00;;;;;17.56;78.92;100610.31;6247507;22;44757;-87
2022/04/11 11:24:02;;;;;;;;;4.00;4.00;;;;;17.59;78.12;100620.72;6222405;22;44651;-87
2022/04/11 11:26:37;;;;;;;;;3.00;3.00;;;;;17.70;79.20;100616.00;6251361;22;45121;-88
2022/04/11 11:29:14;;;;;;;;;7.40;5.00;;;;;17.74;78.02;100627.31;6256323;22;44941;-86
2022/04/11 11:31:40;;;;;;;;;3.20;3.20;;;;;17.83;77.71;100628.25;6225176;22;44769;-87
2022/04/11 11:34:10;;;;;;;;;4.50;3.25;;;;;17.84;77.77;100629.91;6225060;22;45241;-87
2022/04/11 11:36:36;;;;;;;;;3.80;3.80;;;;;17.89;78.08;100619.56;6227083;22;45206;-87
2022/04/11 11:39:18;;;;;;;;;3.75;3.75;;;;;17.97;78.22;100628.56;6228988;22;46886;-88
2022/04/11 11:41:48;;;;;;;;;4.80;4.00;;;;;17.99;78.63;100625.72;6250545;22;45273;-87
2022/04/11 11:44:14;;;;;;;;;3.40;3.40;;;;;18.03;79.86;100620.88;6221645;22;45390;-86
2022/04/11 11:47:00;;;;;;;;;4.75;4.00;;;;;18.00;80.70;100627.41;6220132;22;45337;-87
2022/04/11 11:49:27;;;;;;;;;2.60;2.60;;;;;18.00;81.00;100624.72;6218030;22;45001;-87
2022/04/11 11:51:53;;;;;;;;;1.20;1.20;;;;;18.02;81.56;100620.03;6246102;22;44739;-85
2022/04/11 11:54:36;;;;;;;;;5.60;5.00;;;;;18.11;82.92;100615.56;6246760;22;44670;-87
2022/04/11 11:57:11;;;;;;;;;5.40;3.80;;;;;18.20;82.94;100610.13;6219162;22;45469;-86
2022/04/11 11:59:49;;;;;;;;;6.40;5.60;;;;;18.29;82.21;100612.88;6218134;22;45869;-88
2022/04/11 12:04:58;;;;;;;;;3.00;3.00;;;;;18.42;82.46;100594.47;6246698;22;45422;-86
2022/04/11 12:07:24;;;;;;;;;5.80;5.80;;;;;18.44;82.16;100603.25;6245633;22;44918;-86
2022/04/11 12:09:50;;;;;;;;;4.50;3.25;;;;;18.44;81.58;100604.09;6219852;22;46498;-87
2022/04/11 12:12:19;;;;;;;;;6.50;4.75;;;;;18.56;83.19;100598.44;6256104;22;44643;-86
2022/04/11 12:14:58;;;;;;;;;5.00;4.00;;;;;18.61;82.66;100588.88;6262887;22;45379;-87
2022/04/11 12:17:30;;;;;;;;;5.40;5.00;;;;;18.72;84.25;100591.38;6235763;22;44893;-86
2022/04/11 12:20:05;;;;;;;;;3.20;3.20;;;;;18.86;83.73;100587.25;6227478;22;46603;-86
2022/04/11 12:22:30;;;;;;;;;5.60;4.00;;;;;18.96;83.62;100587.13;6254540;22;44800;-86
2022/04/11 12:24:59;;;;;;;;;4.50;4.50;;;;;19.06;83.04;100582.47;6254986;22;45373;-86
2022/04/11 12:27:24;;;;;;;;;4.40;3.80;;;;;19.13;82.97;100582.63;6252438;22;45093;-87
2022/04/11 12:29:51;;;;;;;;;5.00;3.75;;;;;19.19;82.09;100580.13;6221581;22;45101;-87
2022/04/11 12:32:16;;;;;;;;;2.60;2.60;;;;;19.26;82.33;100575.81;6251719;22;45265;-87
2022/04/11 12:34:44;;;;;;;;;5.25;4.50;;;;;19.18;81.95;100562.28;6257822;22;45157;-87
2022/04/11 12:37:12;;;;;;;;;5.20;4.00;;;;;19.25;82.27;100573.28;6232141;22;44917;-86
2022/04/11 12:39:51;;;;;;;;;3.20;3.20;;;;;19.25;80.99;100574.13;6235963;22;46690;-85
2022/04/11 12:42:21;;;;;;;;;6.40;5.40;;;;;19.24;80.94;100564.34;6236583;22;44762;-87
2022/04/11 12:44:46;;;;;;;;;6.80;5.00;;;;;19.31;81.13;100550.22;6233895;22;45231;-85
2022/04/11 12:47:12;;;;;;;;;2.75;2.75;;;;;19.19;80.63;100547.81;6227820;22;44784;-87
2022/04/11 12:49:54;;;;;;;;;5.75;5.25;;;;;19.10;81.69;100548.81;6254914;22;45283;-88
2022/04/11 12:52:23;;;;;;;;;3.60;3.60;;;;;19.15;82.26;100543.78;6232400;22;44765;-85
2022/04/11 12:54:52;;;;;;;;;4.40;4.40;;;;;19.23;82.31;100538.41;6260037;22;44690;-84
2022/04/11 12:57:24;;;;;;;;;5.00;3.20;;;;;19.35;80.01;100538.13;6257546;22;44912;-87
2022/04/11 12:59:51;;;;;;;;;5.20;3.60;;;;;19.44;81.21;100526.38;6260367;22;44934;-85
2022/04/11 13:02:21;;;;;;;;;5.40;5.00;;;;;19.52;80.23;100529.88;6235300;22;45161;-87
2022/04/11 13:04:52;;;;;;;;;5.40;4.60;;;;;19.67;79.97;100523.88;6261066;22;45242;-86
2022/04/11 13:07:19;;;;;;;;;5.00;5.00;;;;;19.87;80.52;100519.88;6230248;22;44764;-86
2022/04/11 13:09:45;;;;;;;;;4.60;4.40;;;;;20.04;80.15;100528.78;6226359;22;47057;-87
2022/04/11 13:12:12;;;;;;;;;3.50;3.50;;;;;20.08;74.73;100527.44;6225541;22;45374;-87
2022/04/11 13:14:40;;;;;;;;;2.60;2.60;;;;;20.25;73.56;100523.69;6229629;22;44813;-88
2022/04/11 13:20:09;;;;;;;;;3.00;3.00;;;;;20.62;71.48;100507.97;6114868;23;45213;-88
2022/04/11 13:22:35;;;;;;;;;2.80;2.80;;;;;20.67;68.25;100513.69;6114605;23;45341;-86
2022/04/11 13:25:02;;;;;;;;;3.25;1.50;;;;;20.79;67.04;100507.75;6109408;23;44805;-87
2022/04/11 13:27:27;;;;;;;;;2.00;2.00;;;;;20.89;65.37;100496.75;6109376;23;45170;-87
2022/04/11 13:29:53;;;;;;;;;3.00;3.00;;;;;20.94;65.99;100498.91;6102646;23;47427;-87
2022/04/11 13:32:19;;;;;;;;;1.00;1.00;;;;;20.90;63.69;100498.41;6106530;23;44724;-87
2022/04/11 13:34:45;;;;;;;;;2.00;1.60;;;;;20.98;60.11;100495.69;6104398;23;44723;-86
2022/04/11 13:37:10;;;;;;;;;2.00;2.00;;;;;21.02;59.12;100498.88;6102269;23;44828;-86
2022/04/11 13:39:36;;;;;;;;;5.75;5.50;;;;;21.21;60.57;100500.28;6103574;23;45653;-86
2022/04/11 13:42:02;;;;;;;;;6.50;3.00;;;;;21.32;59.33;100490.97;6108549;23;45301;-88
2022/04/11 13:44:38;;;;;;;;;2.40;2.40;;;;;21.35;58.22;100488.75;6104240;23;45319;-89
2022/04/11 13:47:06;;;;;;;;;1.00;1.00;;;;;21.44;57.13;100490.38;6104365;23;44823;-88
2022/04/11 13:49:34;;;;;;;;;2.20;2.20;;;;;21.45;55.86;100478.53;6076574;23;45214;-89
2022/04/11 13:52:01;;;;;;;;;3.20;1.80;;;;;21.48;56.77;100480.06;6074634;23;44845;-89
2022/04/11 13:54:27;;;;;;;;;5.00;2.20;;;;;21.59;54.22;100473.38;6175236;22;44737;-89
2022/04/11 13:56:53;;;;;;;;;1.00;1.00;;;;;21.74;53.19;100475.09;6229019;22;44814;-90
2022/04/11 13:59:25;;;;;;;;;3.00;0.00;;;;;22.08;56.08;100466.50;6202117;22;45675;-89
2022/04/11 14:01:53;;;;;;;;;4.20;1.80;;;;;22.65;52.34;100450.69;6252510;22;45371;-89
2022/04/11 14:04:22;;;;;;;;;1.40;1.40;;;;;23.06;50.45;100460.00;6203066;22;44794;-88
2022/04/11 14:06:48;;;;;;;;;2.00;2.00;;;;;23.50;48.87;100453.59;6252979;22;44753;-87
2022/04/11 14:09:15;;;;;;;;;2.00;2.00;;;;;23.89;48.96;100460.44;6226804;22;45318;-89
2022/04/11 14:11:41;;;;;;;;;3.80;2.40;;;;;24.21;47.96;100461.69;6175770;22;44698;-88
2022/04/11 14:14:08;;;;;;;;;2.00;2.00;;;;;24.41;43.98;100461.84;6252185;22;44685;-86
2022/04/11 14:16:35;;;;;;;;;2.00;2.00;;;;;24.78;43.17;100470.63;6226750;22;44822;-87
2022/04/11 14:19:01;;;;;;;;;2.40;2.40;;;;;25.22;42.51;100453.88;6251351;22;45330;-88
2022/04/11 14:21:27;;;;;;;;;2.00;2.00;;;;;25.68;42.46;100455.00;6200718;22;44758;-88
2022/04/11 14:23:53;;;;;;;;;2.00;2.00;;;;;26.09;41.75;100446.63;6253386;22;45393;-89
2022/04/11 14:26:20;;;;;;;;;2.00;2.00;;;;;26.17;40.54;100427.34;6227188;22;44881;-88
2022/04/11 14:28:46;;;;;;;;;3.20;2.00;;;;;26.20;41.40;100442.41;6228719;22;45511;-90
2022/04/11 14:31:15;;;;;;;;;3.20;3.20;;;;;26.08;38.97;100442.25;6232082;22;44790;-88